sensor_id;sensor_type;location;lat;lon;timestamp;P1;durP1;ratioP1;P2;durP2;ratioP2
8861;SDS011;4799;50.996;4.754;2023-11-22T00:00:19;69.00;;;41.20;;
8861;SDS011;4799;50.996;4.754;2023-11-22T00:02:46;68.27;;;41.57;;
8861;SDS011;4799;50.996;4.754;2023-11-22T00:05:12;64.27;;;39.87;;
8861;SDS011;4799;50.996;4.754;2023-11-22T00:07:38;73.60;;;41.77;;
8861;SDS011;4799;50.996;4.754;2023-11-22T00:10:05;73.53;;;41.67;;
8861;SDS011;4799;50.996;4.754;2023-11-22T00:12:31;81.37;;;42.50;;
8861;SDS011;4799;50.996;4.754;2023-11-22T00:15:06;75.50;;;41.93;;
8861;SDS011;4799;50.996;4.754;2023-11-22T00:17:34;76.87;;;43.07;;
8861;SDS011;4799;50.996;4.754;2023-11-22T00:20:00;54.80;;;37.03;;
8861;SDS011;4799;50.996;4.754;2023-11-22T00:22:30;68.20;;;39.37;;
8861;SDS011;4799;50.996;4.754;2023-11-22T00:24:57;64.87;;;39.03;;
8861;SDS011;4799;50.996;4.754;2023-11-22T00:27:24;71.20;;;40.70;;
8861;SDS011;4799;50.996;4.754;2023-11-22T00:29:50;74.07;;;41.00;;
8861;SDS011;4799;50.996;4.754;2023-11-22T00:32:15;60.23;;;39.70;;
8861;SDS011;4799;50.996;4.754;2023-11-22T00:34:41;67.37;;;39.47;;
8861;SDS011;4799;50.996;4.754;2023-11-22T00:37:07;85.03;;;45.27;;
8861;SDS011;4799;50.996;4.754;2023-11-22T00:39:32;85.63;;;44.23;;
8861;SDS011;4799;50.996;4.754;2023-11-22T00:41:58;82.57;;;43.27;;
8861;SDS011;4799;50.996;4.754;2023-11-22T00:44:24;65.90;;;40.03;;
8861;SDS011;4799;50.996;4.754;2023-11-22T00:46:49;74.07;;;41.53;;
8861;SDS011;4799;50.996;4.754;2023-11-22T00:49:15;75.63;;;41.87;;
8861;SDS011;4799;50.996;4.754;2023-11-22T00:51:41;79.47;;;42.23;;
8861;SDS011;4799;50.996;4.754;2023-11-22T00:54:07;83.17;;;43.53;;
8861;SDS011;4799;50.996;4.754;2023-11-22T00:56:33;70.73;;;40.90;;
8861;SDS011;4799;50.996;4.754;2023-11-22T00:58:58;77.17;;;42.93;;
8861;SDS011;4799;50.996;4.754;2023-11-22T01:01:29;58.53;;;36.43;;
8861;SDS011;4799;50.996;4.754;2023-11-22T01:03:56;99.87;;;44.30;;
8861;SDS011;4799;50.996;4.754;2023-11-22T01:06:22;67.17;;;38.23;;
8861;SDS011;4799;50.996;4.754;2023-11-22T01:08:48;93.57;;;44.47;;
8861;SDS011;4799;50.996;4.754;2023-11-22T01:11:14;79.23;;;41.80;;
8861;SDS011;4799;50.996;4.754;2023-11-22T01:13:40;80.73;;;42.20;;
8861;SDS011;4799;50.996;4.754;2023-11-22T01:16:07;76.90;;;41.57;;
8861;SDS011;4799;50.996;4.754;2023-11-22T01:18:33;119.07;;;47.03;;
8861;SDS011;4799;50.996;4.754;2023-11-22T01:21:00;66.47;;;39.43;;
8861;SDS011;4799;50.996;4.754;2023-11-22T01:23:26;84.87;;;43.70;;
8861;SDS011;4799;50.996;4.754;2023-11-22T01:25:53;84.17;;;43.07;;
8861;SDS011;4799;50.996;4.754;2023-11-22T01:28:19;66.07;;;38.03;;
8861;SDS011;4799;50.996;4.754;2023-11-22T01:30:45;88.90;;;43.17;;
8861;SDS011;4799;50.996;4.754;2023-11-22T01:33:11;101.83;;;43.03;;
8861;SDS011;4799;50.996;4.754;2023-11-22T01:35:37;88.27;;;40.83;;
8861;SDS011;4799;50.996;4.754;2023-11-22T01:38:05;95.13;;;42.00;;
8861;SDS011;4799;50.996;4.754;2023-11-22T01:40:31;80.87;;;42.30;;
8861;SDS011;4799;50.996;4.754;2023-11-22T01:42:58;79.07;;;40.27;;
8861;SDS011;4799;50.996;4.754;2023-11-22T01:45:23;86.13;;;41.27;;
8861;SDS011;4799;50.996;4.754;2023-11-22T01:47:50;91.37;;;42.77;;
8861;SDS011;4799;50.996;4.754;2023-11-22T01:50:16;69.13;;;38.80;;
8861;SDS011;4799;50.996;4.754;2023-11-22T01:52:42;71.43;;;39.43;;
8861;SDS011;4799;50.996;4.754;2023-11-22T01:55:09;104.00;;;46.23;;
8861;SDS011;4799;50.996;4.754;2023-11-22T01:57:35;92.60;;;45.57;;
8861;SDS011;4799;50.996;4.754;2023-11-22T02:00:02;79.87;;;42.43;;
8861;SDS011;4799;50.996;4.754;2023-11-22T02:02:32;89.57;;;44.23;;
8861;SDS011;4799;50.996;4.754;2023-11-22T02:04:59;113.23;;;49.00;;
8861;SDS011;4799;50.996;4.754;2023-11-22T02:07:26;89.83;;;44.27;;
8861;SDS011;4799;50.996;4.754;2023-11-22T02:09:52;93.47;;;46.47;;
8861;SDS011;4799;50.996;4.754;2023-11-22T02:12:18;88.67;;;43.70;;
8861;SDS011;4799;50.996;4.754;2023-11-22T02:14:45;92.00;;;44.93;;
8861;SDS011;4799;50.996;4.754;2023-11-22T02:17:11;110.53;;;44.93;;
8861;SDS011;4799;50.996;4.754;2023-11-22T02:19:37;102.90;;;46.97;;
8861;SDS011;4799;50.996;4.754;2023-11-22T02:22:03;97.33;;;45.23;;
8861;SDS011;4799;50.996;4.754;2023-11-22T02:24:29;76.73;;;41.87;;
8861;SDS011;4799;50.996;4.754;2023-11-22T02:26:54;80.00;;;42.27;;
8861;SDS011;4799;50.996;4.754;2023-11-22T02:29:20;91.77;;;45.07;;
8861;SDS011;4799;50.996;4.754;2023-11-22T02:31:47;76.67;;;42.80;;
8861;SDS011;4799;50.996;4.754;2023-11-22T02:34:13;107.77;;;46.67;;
8861;SDS011;4799;50.996;4.754;2023-11-22T02:36:43;103.20;;;45.07;;
8861;SDS011;4799;50.996;4.754;2023-11-22T02:39:09;85.87;;;42.47;;
8861;SDS011;4799;50.996;4.754;2023-11-22T02:41:35;72.20;;;39.93;;
8861;SDS011;4799;50.996;4.754;2023-11-22T02:44:01;92.33;;;44.47;;
8861;SDS011;4799;50.996;4.754;2023-11-22T02:46:27;70.50;;;40.83;;
8861;SDS011;4799;50.996;4.754;2023-11-22T02:48:54;90.97;;;43.57;;
8861;SDS011;4799;50.996;4.754;2023-11-22T02:51:20;79.67;;;43.87;;
8861;SDS011;4799;50.996;4.754;2023-11-22T02:53:47;92.33;;;44.80;;
8861;SDS011;4799;50.996;4.754;2023-11-22T02:56:14;67.03;;;39.73;;
8861;SDS011;4799;50.996;4.754;2023-11-22T02:58:40;80.57;;;43.40;;
8861;SDS011;4799;50.996;4.754;2023-11-22T03:01:06;98.27;;;47.00;;
8861;SDS011;4799;50.996;4.754;2023-11-22T03:03:33;70.67;;;39.23;;
8861;SDS011;4799;50.996;4.754;2023-11-22T03:05:59;93.13;;;45.73;;
8861;SDS011;4799;50.996;4.754;2023-11-22T03:08:25;94.30;;;47.03;;
8861;SDS011;4799;50.996;4.754;2023-11-22T03:10:52;86.67;;;44.17;;
8861;SDS011;4799;50.996;4.754;2023-11-22T03:13:18;91.13;;;43.47;;
8861;SDS011;4799;50.996;4.754;2023-11-22T03:15:44;107.87;;;47.07;;
8861;SDS011;4799;50.996;4.754;2023-11-22T03:18:10;122.67;;;48.33;;
8861;SDS011;4799;50.996;4.754;2023-11-22T03:20:36;81.30;;;40.23;;
8861;SDS011;4799;50.996;4.754;2023-11-22T03:23:03;135.23;;;45.10;;
8861;SDS011;4799;50.996;4.754;2023-11-22T03:25:29;546.33;;;74.23;;
8861;SDS011;4799;50.996;4.754;2023-11-22T03:27:55;327.87;;;53.80;;
8861;SDS011;4799;50.996;4.754;2023-11-22T03:30:22;426.47;;;54.97;;
8861;SDS011;4799;50.996;4.754;2023-11-22T03:32:47;444.23;;;56.43;;
8861;SDS011;4799;50.996;4.754;2023-11-22T03:35:15;458.07;;;57.87;;
8861;SDS011;4799;50.996;4.754;2023-11-22T03:37:42;441.67;;;57.60;;
8861;SDS011;4799;50.996;4.754;2023-11-22T03:40:08;287.87;;;45.87;;
8861;SDS011;4799;50.996;4.754;2023-11-22T03:42:37;271.33;;;49.70;;
8861;SDS011;4799;50.996;4.754;2023-11-22T03:45:04;344.23;;;53.10;;
8861;SDS011;4799;50.996;4.754;2023-11-22T03:47:30;623.53;;;71.00;;
8861;SDS011;4799;50.996;4.754;2023-11-22T03:49:58;550.57;;;65.30;;
8861;SDS011;4799;50.996;4.754;2023-11-22T03:52:24;359.10;;;47.17;;
8861;SDS011;4799;50.996;4.754;2023-11-22T03:54:50;398.17;;;52.17;;
8861;SDS011;4799;50.996;4.754;2023-11-22T03:57:16;456.10;;;57.03;;
8861;SDS011;4799;50.996;4.754;2023-11-22T03:59:42;402.50;;;51.70;;
8861;SDS011;4799;50.996;4.754;2023-11-22T04:02:08;334.50;;;46.57;;
8861;SDS011;4799;50.996;4.754;2023-11-22T04:04:34;416.33;;;58.00;;
8861;SDS011;4799;50.996;4.754;2023-11-22T04:07:01;375.47;;;51.03;;
8861;SDS011;4799;50.996;4.754;2023-11-22T04:09:27;221.83;;;44.50;;
8861;SDS011;4799;50.996;4.754;2023-11-22T04:11:54;361.23;;;52.60;;
8861;SDS011;4799;50.996;4.754;2023-11-22T04:14:20;244.80;;;42.07;;
8861;SDS011;4799;50.996;4.754;2023-11-22T04:16:46;270.13;;;43.27;;
8861;SDS011;4799;50.996;4.754;2023-11-22T04:19:12;251.30;;;42.63;;
8861;SDS011;4799;50.996;4.754;2023-11-22T04:21:38;299.07;;;48.30;;
8861;SDS011;4799;50.996;4.754;2023-11-22T04:24:04;385.93;;;55.80;;
8861;SDS011;4799;50.996;4.754;2023-11-22T04:26:31;342.83;;;49.43;;
8861;SDS011;4799;50.996;4.754;2023-11-22T04:28:57;351.90;;;53.63;;
8861;SDS011;4799;50.996;4.754;2023-11-22T04:31:23;234.93;;;43.97;;
8861;SDS011;4799;50.996;4.754;2023-11-22T04:33:49;279.50;;;53.17;;
8861;SDS011;4799;50.996;4.754;2023-11-22T04:36:15;143.73;;;41.60;;
8861;SDS011;4799;50.996;4.754;2023-11-22T04:38:41;176.87;;;51.03;;
8861;SDS011;4799;50.996;4.754;2023-11-22T04:41:08;102.07;;;44.43;;
8861;SDS011;4799;50.996;4.754;2023-11-22T04:43:33;127.60;;;48.90;;
8861;SDS011;4799;50.996;4.754;2023-11-22T04:45:59;179.30;;;54.33;;
8861;SDS011;4799;50.996;4.754;2023-11-22T04:48:25;176.23;;;56.03;;
8861;SDS011;4799;50.996;4.754;2023-11-22T04:50:50;131.27;;;51.70;;
8861;SDS011;4799;50.996;4.754;2023-11-22T04:53:16;118.17;;;51.07;;
8861;SDS011;4799;50.996;4.754;2023-11-22T04:55:44;120.27;;;51.87;;
8861;SDS011;4799;50.996;4.754;2023-11-22T04:58:09;129.30;;;54.73;;
8861;SDS011;4799;50.996;4.754;2023-11-22T05:00:35;142.87;;;54.70;;
8861;SDS011;4799;50.996;4.754;2023-11-22T05:03:01;140.23;;;54.47;;
8861;SDS011;4799;50.996;4.754;2023-11-22T05:05:27;96.30;;;49.50;;
8861;SDS011;4799;50.996;4.754;2023-11-22T05:07:52;113.30;;;49.87;;
8861;SDS011;4799;50.996;4.754;2023-11-22T05:10:18;132.13;;;54.87;;
8861;SDS011;4799;50.996;4.754;2023-11-22T05:12:44;178.83;;;60.63;;
8861;SDS011;4799;50.996;4.754;2023-11-22T05:15:09;145.13;;;55.00;;
8861;SDS011;4799;50.996;4.754;2023-11-22T05:17:35;143.07;;;55.30;;
8861;SDS011;4799;50.996;4.754;2023-11-22T05:20:01;201.30;;;60.33;;
8861;SDS011;4799;50.996;4.754;2023-11-22T05:22:27;200.73;;;59.37;;
8861;SDS011;4799;50.996;4.754;2023-11-22T05:24:53;213.57;;;60.17;;
8861;SDS011;4799;50.996;4.754;2023-11-22T05:27:18;320.77;;;66.07;;
8861;SDS011;4799;50.996;4.754;2023-11-22T05:29:44;132.40;;;50.73;;
8861;SDS011;4799;50.996;4.754;2023-11-22T05:32:10;345.13;;;74.90;;
8861;SDS011;4799;50.996;4.754;2023-11-22T05:34:36;208.07;;;62.83;;
8861;SDS011;4799;50.996;4.754;2023-11-22T05:37:02;250.23;;;62.40;;
8861;SDS011;4799;50.996;4.754;2023-11-22T05:39:30;291.93;;;63.90;;
8861;SDS011;4799;50.996;4.754;2023-11-22T05:41:56;247.97;;;59.10;;
8861;SDS011;4799;50.996;4.754;2023-11-22T05:44:21;297.97;;;62.77;;
8861;SDS011;4799;50.996;4.754;2023-11-22T05:46:47;284.30;;;61.40;;
8861;SDS011;4799;50.996;4.754;2023-11-22T05:49:13;164.67;;;56.33;;
8861;SDS011;4799;50.996;4.754;2023-11-22T05:51:38;295.10;;;63.93;;
8861;SDS011;4799;50.996;4.754;2023-11-22T05:54:04;382.63;;;78.87;;
8861;SDS011;4799;50.996;4.754;2023-11-22T05:56:30;145.23;;;52.57;;
8861;SDS011;4799;50.996;4.754;2023-11-22T05:58:56;232.80;;;68.30;;
8861;SDS011;4799;50.996;4.754;2023-11-22T06:01:22;311.63;;;67.10;;
8861;SDS011;4799;50.996;4.754;2023-11-22T06:03:48;268.97;;;71.90;;
8861;SDS011;4799;50.996;4.754;2023-11-22T06:06:14;230.17;;;68.97;;
8861;SDS011;4799;50.996;4.754;2023-11-22T06:08:40;269.77;;;71.27;;
8861;SDS011;4799;50.996;4.754;2023-11-22T06:11:05;293.40;;;76.40;;
8861;SDS011;4799;50.996;4.754;2023-11-22T06:13:32;266.23;;;66.90;;
8861;SDS011;4799;50.996;4.754;2023-11-22T06:15:57;192.67;;;63.47;;
8861;SDS011;4799;50.996;4.754;2023-11-22T06:18:23;324.87;;;81.10;;
8861;SDS011;4799;50.996;4.754;2023-11-22T06:20:54;251.53;;;70.47;;
8861;SDS011;4799;50.996;4.754;2023-11-22T06:23:21;340.43;;;74.43;;
8861;SDS011;4799;50.996;4.754;2023-11-22T06:25:47;261.70;;;71.33;;
8861;SDS011;4799;50.996;4.754;2023-11-22T06:28:12;253.77;;;71.10;;
8861;SDS011;4799;50.996;4.754;2023-11-22T06:30:38;249.07;;;68.13;;
8861;SDS011;4799;50.996;4.754;2023-11-22T06:33:04;313.03;;;72.43;;
8861;SDS011;4799;50.996;4.754;2023-11-22T06:35:30;217.23;;;69.77;;
8861;SDS011;4799;50.996;4.754;2023-11-22T06:37:55;232.43;;;70.30;;
8861;SDS011;4799;50.996;4.754;2023-11-22T06:40:21;191.47;;;61.63;;
8861;SDS011;4799;50.996;4.754;2023-11-22T06:42:47;205.00;;;62.73;;
8861;SDS011;4799;50.996;4.754;2023-11-22T06:45:13;190.87;;;64.33;;
8861;SDS011;4799;50.996;4.754;2023-11-22T06:47:40;232.50;;;69.30;;
8861;SDS011;4799;50.996;4.754;2023-11-22T06:50:07;294.07;;;70.03;;
8861;SDS011;4799;50.996;4.754;2023-11-22T06:52:36;217.87;;;66.80;;
8861;SDS011;4799;50.996;4.754;2023-11-22T06:55:06;269.80;;;68.27;;
8861;SDS011;4799;50.996;4.754;2023-11-22T06:57:36;186.40;;;62.43;;
8861;SDS011;4799;50.996;4.754;2023-11-22T07:00:03;313.30;;;77.13;;
8861;SDS011;4799;50.996;4.754;2023-11-22T07:02:30;340.00;;;78.53;;
8861;SDS011;4799;50.996;4.754;2023-11-22T07:05:02;222.00;;;65.13;;
8861;SDS011;4799;50.996;4.754;2023-11-22T07:07:29;204.40;;;63.63;;
8861;SDS011;4799;50.996;4.754;2023-11-22T07:09:55;261.80;;;70.80;;
8861;SDS011;4799;50.996;4.754;2023-11-22T07:12:23;253.03;;;68.97;;
8861;SDS011;4799;50.996;4.754;2023-11-22T07:14:52;222.13;;;68.17;;
8861;SDS011;4799;50.996;4.754;2023-11-22T07:17:18;201.30;;;62.57;;
8861;SDS011;4799;50.996;4.754;2023-11-22T07:19:44;321.00;;;74.07;;
8861;SDS011;4799;50.996;4.754;2023-11-22T07:22:13;274.30;;;74.37;;
8861;SDS011;4799;50.996;4.754;2023-11-22T07:24:47;194.07;;;63.67;;
8861;SDS011;4799;50.996;4.754;2023-11-22T07:27:16;167.07;;;59.07;;
8861;SDS011;4799;50.996;4.754;2023-11-22T07:29:42;237.47;;;70.87;;
8861;SDS011;4799;50.996;4.754;2023-11-22T07:32:09;171.97;;;58.57;;
8861;SDS011;4799;50.996;4.754;2023-11-22T07:34:35;163.07;;;59.43;;
8861;SDS011;4799;50.996;4.754;2023-11-22T07:37:02;165.57;;;59.53;;
8861;SDS011;4799;50.996;4.754;2023-11-22T07:39:28;128.17;;;53.27;;
8861;SDS011;4799;50.996;4.754;2023-11-22T07:41:54;129.07;;;52.27;;
8861;SDS011;4799;50.996;4.754;2023-11-22T07:44:20;128.33;;;52.47;;
8861;SDS011;4799;50.996;4.754;2023-11-22T07:46:47;145.23;;;57.10;;
8861;SDS011;4799;50.996;4.754;2023-11-22T07:49:12;141.93;;;57.50;;
8861;SDS011;4799;50.996;4.754;2023-11-22T07:51:42;131.07;;;55.37;;
8861;SDS011;4799;50.996;4.754;2023-11-22T07:54:10;126.93;;;53.83;;
8861;SDS011;4799;50.996;4.754;2023-11-22T07:56:43;122.80;;;49.93;;
8861;SDS011;4799;50.996;4.754;2023-11-22T07:59:12;118.90;;;52.10;;
8861;SDS011;4799;50.996;4.754;2023-11-22T08:01:38;113.20;;;51.40;;
8861;SDS011;4799;50.996;4.754;2023-11-22T08:04:08;103.97;;;48.87;;
8861;SDS011;4799;50.996;4.754;2023-11-22T08:06:34;107.30;;;48.40;;
8861;SDS011;4799;50.996;4.754;2023-11-22T08:09:01;114.97;;;51.80;;
8861;SDS011;4799;50.996;4.754;2023-11-22T08:11:30;123.63;;;52.17;;
8861;SDS011;4799;50.996;4.754;2023-11-22T08:13:57;120.77;;;53.57;;
8861;SDS011;4799;50.996;4.754;2023-11-22T08:16:24;100.47;;;48.20;;
8861;SDS011;4799;50.996;4.754;2023-11-22T08:18:51;137.73;;;54.00;;
8861;SDS011;4799;50.996;4.754;2023-11-22T08:21:17;107.97;;;48.40;;
8861;SDS011;4799;50.996;4.754;2023-11-22T08:23:43;103.63;;;49.03;;
8861;SDS011;4799;50.996;4.754;2023-11-22T08:26:11;90.73;;;47.20;;
8861;SDS011;4799;50.996;4.754;2023-11-22T08:28:37;90.47;;;44.93;;
8861;SDS011;4799;50.996;4.754;2023-11-22T08:31:03;97.53;;;47.77;;
8861;SDS011;4799;50.996;4.754;2023-11-22T08:33:35;83.30;;;45.80;;
8861;SDS011;4799;50.996;4.754;2023-11-22T08:36:01;96.07;;;47.70;;
8861;SDS011;4799;50.996;4.754;2023-11-22T08:38:29;94.40;;;47.93;;
8861;SDS011;4799;50.996;4.754;2023-11-22T08:41:00;87.90;;;46.23;;
8861;SDS011;4799;50.996;4.754;2023-11-22T08:43:28;83.87;;;43.93;;
8861;SDS011;4799;50.996;4.754;2023-11-22T08:45:53;77.60;;;44.53;;
8861;SDS011;4799;50.996;4.754;2023-11-22T08:48:19;83.87;;;46.07;;
8861;SDS011;4799;50.996;4.754;2023-11-22T08:50:45;94.70;;;47.70;;
8861;SDS011;4799;50.996;4.754;2023-11-22T08:53:12;87.17;;;45.77;;
8861;SDS011;4799;50.996;4.754;2023-11-22T08:55:38;72.80;;;41.00;;
8861;SDS011;4799;50.996;4.754;2023-11-22T08:58:04;70.80;;;42.33;;
8861;SDS011;4799;50.996;4.754;2023-11-22T09:00:30;80.47;;;43.43;;
8861;SDS011;4799;50.996;4.754;2023-11-22T09:02:57;66.17;;;39.63;;
8861;SDS011;4799;50.996;4.754;2023-11-22T09:05:23;70.43;;;41.87;;
8861;SDS011;4799;50.996;4.754;2023-11-22T09:07:49;66.07;;;39.07;;
8861;SDS011;4799;50.996;4.754;2023-11-22T09:10:16;66.77;;;39.27;;
8861;SDS011;4799;50.996;4.754;2023-11-22T09:12:43;74.20;;;41.60;;
8861;SDS011;4799;50.996;4.754;2023-11-22T09:15:13;65.10;;;38.93;;
8861;SDS011;4799;50.996;4.754;2023-11-22T09:17:42;61.03;;;38.43;;
8861;SDS011;4799;50.996;4.754;2023-11-22T09:22:37;58.27;;;37.20;;
8861;SDS011;4799;50.996;4.754;2023-11-22T09:25:19;60.57;;;37.13;;
8861;SDS011;4799;50.996;4.754;2023-11-22T09:27:46;54.57;;;36.77;;
8861;SDS011;4799;50.996;4.754;2023-11-22T09:30:14;58.37;;;37.47;;
8861;SDS011;4799;50.996;4.754;2023-11-22T09:33:00;59.57;;;38.37;;
8861;SDS011;4799;50.996;4.754;2023-11-22T09:35:27;56.87;;;38.17;;
8861;SDS011;4799;50.996;4.754;2023-11-22T09:37:57;57.50;;;38.43;;
8861;SDS011;4799;50.996;4.754;2023-11-22T09:40:27;51.77;;;36.23;;
8861;SDS011;4799;50.996;4.754;2023-11-22T09:42:55;46.80;;;34.50;;
8861;SDS011;4799;50.996;4.754;2023-11-22T09:45:22;46.03;;;33.53;;
8861;SDS011;4799;50.996;4.754;2023-11-22T09:47:50;46.33;;;34.23;;
8861;SDS011;4799;50.996;4.754;2023-11-22T09:50:20;46.33;;;34.40;;
8861;SDS011;4799;50.996;4.754;2023-11-22T09:52:52;45.97;;;32.60;;
8861;SDS011;4799;50.996;4.754;2023-11-22T09:55:25;39.63;;;31.33;;
8861;SDS011;4799;50.996;4.754;2023-11-22T09:57:53;37.47;;;30.40;;
8861;SDS011;4799;50.996;4.754;2023-11-22T10:00:23;36.03;;;29.60;;
8861;SDS011;4799;50.996;4.754;2023-11-22T10:02:52;36.90;;;30.33;;
8861;SDS011;4799;50.996;4.754;2023-11-22T10:05:19;36.00;;;29.97;;
8861;SDS011;4799;50.996;4.754;2023-11-22T10:07:45;34.10;;;27.87;;
8861;SDS011;4799;50.996;4.754;2023-11-22T10:10:13;35.73;;;30.50;;
8861;SDS011;4799;50.996;4.754;2023-11-22T10:12:42;36.33;;;29.33;;
8861;SDS011;4799;50.996;4.754;2023-11-22T10:15:17;34.40;;;27.97;;
8861;SDS011;4799;50.996;4.754;2023-11-22T10:17:47;34.37;;;29.53;;
8861;SDS011;4799;50.996;4.754;2023-11-22T10:20:39;34.37;;;28.63;;
8861;SDS011;4799;50.996;4.754;2023-11-22T10:23:10;34.47;;;27.70;;
8861;SDS011;4799;50.996;4.754;2023-11-22T10:25:43;36.77;;;30.97;;
8861;SDS011;4799;50.996;4.754;2023-11-22T10:28:09;37.23;;;30.87;;
8861;SDS011;4799;50.996;4.754;2023-11-22T10:30:34;37.67;;;31.23;;
8861;SDS011;4799;50.996;4.754;2023-11-22T10:33:01;37.63;;;30.77;;
8861;SDS011;4799;50.996;4.754;2023-11-22T10:35:29;36.37;;;30.57;;
8861;SDS011;4799;50.996;4.754;2023-11-22T10:37:56;33.47;;;29.30;;
8861;SDS011;4799;50.996;4.754;2023-11-22T10:40:22;35.93;;;29.67;;
8861;SDS011;4799;50.996;4.754;2023-11-22T10:42:47;37.10;;;30.53;;
8861;SDS011;4799;50.996;4.754;2023-11-22T10:45:17;38.27;;;29.73;;
8861;SDS011;4799;50.996;4.754;2023-11-22T10:47:43;37.00;;;30.43;;
8861;SDS011;4799;50.996;4.754;2023-11-22T10:50:10;34.10;;;29.63;;
8861;SDS011;4799;50.996;4.754;2023-11-22T10:52:37;34.33;;;29.80;;
8861;SDS011;4799;50.996;4.754;2023-11-22T10:55:06;33.40;;;29.13;;
8861;SDS011;4799;50.996;4.754;2023-11-22T10:57:36;33.10;;;28.20;;
8861;SDS011;4799;50.996;4.754;2023-11-22T11:00:09;31.23;;;27.83;;
8861;SDS011;4799;50.996;4.754;2023-11-22T11:02:41;33.53;;;28.93;;
8861;SDS011;4799;50.996;4.754;2023-11-22T11:05:15;35.37;;;30.43;;
8861;SDS011;4799;50.996;4.754;2023-11-22T11:07:49;35.90;;;29.17;;
8861;SDS011;4799;50.996;4.754;2023-11-22T11:10:25;34.43;;;29.50;;
8861;SDS011;4799;50.996;4.754;2023-11-22T11:12:52;37.80;;;30.80;;
8861;SDS011;4799;50.996;4.754;2023-11-22T11:15:19;39.47;;;32.30;;
8861;SDS011;4799;50.996;4.754;2023-11-22T11:17:46;38.20;;;30.80;;
8861;SDS011;4799;50.996;4.754;2023-11-22T11:20:18;34.60;;;30.43;;
8861;SDS011;4799;50.996;4.754;2023-11-22T11:22:48;35.07;;;29.77;;
8861;SDS011;4799;50.996;4.754;2023-11-22T11:25:15;34.03;;;29.50;;
8861;SDS011;4799;50.996;4.754;2023-11-22T11:27:44;31.47;;;28.07;;
8861;SDS011;4799;50.996;4.754;2023-11-22T11:30:43;35.40;;;29.17;;
8861;SDS011;4799;50.996;4.754;2023-11-22T11:33:14;34.00;;;29.97;;
8861;SDS011;4799;50.996;4.754;2023-11-22T11:35:47;31.90;;;27.73;;
8861;SDS011;4799;50.996;4.754;2023-11-22T11:38:15;38.43;;;28.90;;
8861;SDS011;4799;50.996;4.754;2023-11-22T11:40:42;32.43;;;28.93;;
8861;SDS011;4799;50.996;4.754;2023-11-22T11:43:10;36.17;;;28.27;;
8861;SDS011;4799;50.996;4.754;2023-11-22T11:45:38;35.47;;;28.93;;
8861;SDS011;4799;50.996;4.754;2023-11-22T11:48:08;35.00;;;28.20;;
8861;SDS011;4799;50.996;4.754;2023-11-22T11:50:33;32.73;;;26.27;;
8861;SDS011;4799;50.996;4.754;2023-11-22T11:52:59;30.70;;;26.23;;
8861;SDS011;4799;50.996;4.754;2023-11-22T11:55:26;30.60;;;26.90;;
8861;SDS011;4799;50.996;4.754;2023-11-22T11:57:53;28.53;;;25.37;;
8861;SDS011;4799;50.996;4.754;2023-11-22T12:00:20;25.60;;;23.00;;
8861;SDS011;4799;50.996;4.754;2023-11-22T12:02:49;24.97;;;22.27;;
8861;SDS011;4799;50.996;4.754;2023-11-22T12:05:14;22.93;;;20.73;;
8861;SDS011;4799;50.996;4.754;2023-11-22T12:07:40;22.13;;;19.87;;
8861;SDS011;4799;50.996;4.754;2023-11-22T12:10:06;21.97;;;19.77;;
8861;SDS011;4799;50.996;4.754;2023-11-22T12:12:33;21.20;;;19.10;;
8861;SDS011;4799;50.996;4.754;2023-11-22T12:14:59;21.10;;;18.93;;
8861;SDS011;4799;50.996;4.754;2023-11-22T12:17:26;19.87;;;17.93;;
8861;SDS011;4799;50.996;4.754;2023-11-22T12:20:08;21.37;;;19.07;;
8861;SDS011;4799;50.996;4.754;2023-11-22T12:22:36;20.50;;;18.43;;
8861;SDS011;4799;50.996;4.754;2023-11-22T12:25:03;20.07;;;18.07;;
8861;SDS011;4799;50.996;4.754;2023-11-22T12:27:30;21.47;;;19.40;;
8861;SDS011;4799;50.996;4.754;2023-11-22T12:29:56;21.33;;;19.23;;
8861;SDS011;4799;50.996;4.754;2023-11-22T12:32:26;20.20;;;18.20;;
8861;SDS011;4799;50.996;4.754;2023-11-22T12:34:53;20.60;;;18.27;;
8861;SDS011;4799;50.996;4.754;2023-11-22T12:37:20;21.27;;;18.80;;
8861;SDS011;4799;50.996;4.754;2023-11-22T12:39:47;21.33;;;19.13;;
8861;SDS011;4799;50.996;4.754;2023-11-22T12:42:19;20.87;;;18.87;;
8861;SDS011;4799;50.996;4.754;2023-11-22T12:44:49;21.27;;;19.27;;
8861;SDS011;4799;50.996;4.754;2023-11-22T12:47:35;20.70;;;18.57;;
8861;SDS011;4799;50.996;4.754;2023-11-22T12:50:02;20.40;;;18.40;;
8861;SDS011;4799;50.996;4.754;2023-11-22T12:52:32;20.27;;;18.27;;
8861;SDS011;4799;50.996;4.754;2023-11-22T12:54:58;20.10;;;18.10;;
8861;SDS011;4799;50.996;4.754;2023-11-22T12:57:24;21.77;;;19.47;;
8861;SDS011;4799;50.996;4.754;2023-11-22T12:59:50;21.67;;;19.47;;
8861;SDS011;4799;50.996;4.754;2023-11-22T13:02:16;21.37;;;19.27;;
8861;SDS011;4799;50.996;4.754;2023-11-22T13:04:42;20.23;;;18.23;;
8861;SDS011;4799;50.996;4.754;2023-11-22T13:07:10;19.93;;;18.10;;
8861;SDS011;4799;50.996;4.754;2023-11-22T13:09:36;19.57;;;17.57;;
8861;SDS011;4799;50.996;4.754;2023-11-22T13:12:03;21.13;;;19.23;;
8861;SDS011;4799;50.996;4.754;2023-11-22T13:14:29;22.95;;;20.65;;
8861;SDS011;4799;50.996;4.754;2023-11-22T13:17:00;21.83;;;19.63;;
8861;SDS011;4799;50.996;4.754;2023-11-22T13:19:26;22.00;;;19.90;;
8861;SDS011;4799;50.996;4.754;2023-11-22T13:21:52;20.60;;;18.50;;
8861;SDS011;4799;50.996;4.754;2023-11-22T13:24:18;21.67;;;19.57;;
8861;SDS011;4799;50.996;4.754;2023-11-22T13:26:45;21.60;;;19.10;;
8861;SDS011;4799;50.996;4.754;2023-11-22T13:29:11;21.13;;;19.13;;
8861;SDS011;4799;50.996;4.754;2023-11-22T13:31:37;20.67;;;18.67;;
8861;SDS011;4799;50.996;4.754;2023-11-22T13:34:02;21.17;;;19.17;;
8861;SDS011;4799;50.996;4.754;2023-11-22T13:36:28;21.73;;;19.43;;
8861;SDS011;4799;50.996;4.754;2023-11-22T13:38:54;19.80;;;17.80;;
8861;SDS011;4799;50.996;4.754;2023-11-22T13:41:21;19.50;;;17.50;;
8861;SDS011;4799;50.996;4.754;2023-11-22T13:43:49;18.93;;;17.20;;
8861;SDS011;4799;50.996;4.754;2023-11-22T13:46:16;18.80;;;16.90;;
8861;SDS011;4799;50.996;4.754;2023-11-22T13:48:42;19.30;;;17.10;;
8861;SDS011;4799;50.996;4.754;2023-11-22T13:51:08;17.37;;;15.87;;
8861;SDS011;4799;50.996;4.754;2023-11-22T13:53:35;17.60;;;15.90;;
8861;SDS011;4799;50.996;4.754;2023-11-22T13:56:04;19.03;;;16.93;;
8861;SDS011;4799;50.996;4.754;2023-11-22T13:58:34;18.17;;;16.43;;
8861;SDS011;4799;50.996;4.754;2023-11-22T14:01:00;18.50;;;16.70;;
8861;SDS011;4799;50.996;4.754;2023-11-22T14:03:26;18.60;;;16.80;;
8861;SDS011;4799;50.996;4.754;2023-11-22T14:05:51;20.23;;;18.10;;
8861;SDS011;4799;50.996;4.754;2023-11-22T14:08:17;19.00;;;17.00;;
8861;SDS011;4799;50.996;4.754;2023-11-22T14:10:44;18.43;;;16.70;;
8861;SDS011;4799;50.996;4.754;2023-11-22T14:13:10;18.00;;;16.30;;
8861;SDS011;4799;50.996;4.754;2023-11-22T14:15:37;19.43;;;17.63;;
8861;SDS011;4799;50.996;4.754;2023-11-22T14:18:03;19.30;;;17.47;;
8861;SDS011;4799;50.996;4.754;2023-11-22T14:20:30;20.47;;;18.47;;
8861;SDS011;4799;50.996;4.754;2023-11-22T14:22:55;19.40;;;17.50;;
8861;SDS011;4799;50.996;4.754;2023-11-22T14:25:21;19.27;;;17.33;;
8861;SDS011;4799;50.996;4.754;2023-11-22T14:27:47;19.40;;;17.50;;
8861;SDS011;4799;50.996;4.754;2023-11-22T14:30:17;18.30;;;16.57;;
8861;SDS011;4799;50.996;4.754;2023-11-22T14:32:46;19.43;;;17.53;;
8861;SDS011;4799;50.996;4.754;2023-11-22T14:35:12;18.23;;;16.43;;
8861;SDS011;4799;50.996;4.754;2023-11-22T14:37:38;18.87;;;16.87;;
8861;SDS011;4799;50.996;4.754;2023-11-22T14:40:05;18.40;;;16.47;;
8861;SDS011;4799;50.996;4.754;2023-11-22T14:42:45;19.07;;;17.17;;
8861;SDS011;4799;50.996;4.754;2023-11-22T14:45:13;20.37;;;18.27;;